createdAt,value
2019-01-29T00:00:52.367Z,93865.87
2019-01-29T00:03:23.861Z,93833.88
2019-01-29T00:05:55.542Z,93834.06
2019-01-29T00:08:27.046Z,93854.67
2019-01-29T00:10:58.704Z,93818.28
2019-01-29T00:13:30.196Z,93870.12
2019-01-29T00:16:01.930Z,93847.00
2019-01-29T00:18:34.198Z,93832.77
2019-01-29T00:21:06.076Z,93828.48
2019-01-29T00:23:37.488Z,93865.87
2019-01-29T00:26:09.045Z,93866.44
2019-01-29T00:28:40.624Z,93857.37
2019-01-29T00:31:12.039Z,93854.21
2019-01-29T00:33:43.388Z,93870.97
2019-01-29T00:36:15.178Z,93867.50
2019-01-29T00:38:47.675Z,93874.09
2019-01-29T00:41:19.349Z,93857.36
2019-01-29T00:43:51.106Z,93865.91
2019-01-29T00:46:22.720Z,93873.85
2019-01-29T00:48:54.392Z,93878.20
2019-01-29T00:51:26.056Z,93875.14
2019-01-29T00:53:57.668Z,93884.89
2019-01-29T00:56:29.216Z,93871.81
2019-01-29T00:59:00.883Z,93876.91
2019-01-29T01:01:32.348Z,93878.16
2019-01-29T01:04:03.840Z,93863.59
2019-01-29T01:06:35.210Z,93865.75
2019-01-29T01:09:09.511Z,93880.16
2019-01-29T01:11:40.943Z,93897.40
2019-01-29T01:14:13.637Z,93889.15
2019-01-29T01:16:45.575Z,93886.36
2019-01-29T01:19:17.221Z,93894.73
2019-01-29T01:21:48.887Z,93888.00
2019-01-29T01:24:20.741Z,93897.28
2019-01-29T01:26:52.411Z,93882.84
2019-01-29T01:29:24.098Z,93885.55
2019-01-29T01:31:55.639Z,93882.55
2019-01-29T01:34:27.234Z,93876.91
2019-01-29T01:36:58.993Z,93884.61
2019-01-29T01:39:30.631Z,93886.89
2019-01-29T01:42:02.432Z,93892.44
2019-01-29T01:44:33.996Z,93897.94
2019-01-29T01:47:05.373Z,93890.49
2019-01-29T01:49:36.934Z,93898.09
2019-01-29T01:52:08.448Z,93889.45
2019-01-29T01:54:40.146Z,93892.53
2019-01-29T01:57:11.582Z,93886.34
2019-01-29T01:59:43.141Z,93886.95
2019-01-29T02:02:14.747Z,93885.33
2019-01-29T02:04:46.342Z,93890.29
2019-01-29T02:07:17.673Z,93890.91
2019-01-29T02:09:48.986Z,93877.84
2019-01-29T02:12:20.260Z,93879.34
2019-01-29T02:14:51.710Z,93883.60
2019-01-29T02:17:23.192Z,93879.02
2019-01-29T02:19:54.807Z,93886.71
2019-01-29T02:22:26.307Z,93858.64
2019-01-29T02:24:57.981Z,93873.81
2019-01-29T02:27:29.807Z,93873.45
2019-01-29T02:30:01.408Z,93885.83
2019-01-29T02:32:33.284Z,93863.02
2019-01-29T02:35:05.047Z,93882.66
2019-01-29T02:37:36.435Z,93861.38
2019-01-29T02:40:10.955Z,93870.61
2019-01-29T02:42:42.298Z,93873.25
2019-01-29T02:45:14.878Z,93870.64
2019-01-29T02:47:46.719Z,93860.38
2019-01-29T02:50:19.128Z,93876.43
2019-01-29T02:52:50.529Z,93871.52
2019-01-29T02:55:21.963Z,93874.56
2019-01-29T02:57:53.286Z,93873.00
2019-01-29T03:00:26.628Z,93871.66
2019-01-29T03:02:58.243Z,93854.94
2019-01-29T03:05:30.896Z,93856.38
2019-01-29T03:08:02.611Z,93861.14
2019-01-29T03:10:34.154Z,93874.86
2019-01-29T03:13:05.996Z,93871.19
2019-01-29T03:15:37.490Z,93889.63
2019-01-29T03:18:09.142Z,93894.13
2019-01-29T03:20:40.637Z,93894.10
2019-01-29T03:23:12.482Z,93864.73
2019-01-29T03:25:44.161Z,93873.70
2019-01-29T03:28:15.973Z,93880.27
2019-01-29T03:30:47.721Z,93878.41
2019-01-29T03:33:19.227Z,93875.05
2019-01-29T03:35:52.112Z,93866.63
2019-01-29T03:38:23.944Z,93867.64
2019-01-29T03:40:55.514Z,93873.16
2019-01-29T03:43:27.265Z,93881.73
2019-01-29T03:45:59.041Z,93875.64
2019-01-29T03:48:30.784Z,93872.70
2019-01-29T03:51:02.142Z,93864.34
2019-01-29T03:53:38.206Z,93880.94
2019-01-29T03:56:07.305Z,93876.44
2019-01-29T03:58:39.442Z,93881.88
2019-01-29T04:01:11.110Z,93879.10
2019-01-29T04:03:42.591Z,93880.87
2019-01-29T04:06:14.037Z,93882.31
2019-01-29T04:08:45.596Z,93886.23
2019-01-29T04:11:17.182Z,93882.66
2019-01-29T04:13:48.948Z,93889.97
2019-01-29T04:16:20.565Z,93886.14
2019-01-29T04:18:52.162Z,93882.08
2019-01-29T04:21:23.571Z,93883.08
2019-01-29T04:23:55.180Z,93887.65
2019-01-29T04:26:26.822Z,93889.11
2019-01-29T04:28:58.453Z,93896.70
2019-01-29T04:31:30.144Z,93904.19
2019-01-29T04:34:01.514Z,93905.06
2019-01-29T04:36:32.760Z,93911.28
2019-01-29T04:39:05.925Z,93907.00
2019-01-29T04:41:37.217Z,93922.12
2019-01-29T04:44:08.778Z,93908.08
2019-01-29T04:46:40.223Z,93925.38
2019-01-29T04:49:11.855Z,93919.95
2019-01-29T04:51:43.149Z,93907.62
2019-01-29T04:54:14.814Z,93903.14
2019-01-29T04:56:46.277Z,93895.17
2019-01-29T04:59:17.883Z,93893.05
2019-01-29T05:01:49.670Z,93892.92
2019-01-29T05:04:21.308Z,93897.06
2019-01-29T05:06:52.598Z,93910.54
2019-01-29T05:09:23.978Z,93916.80
2019-01-29T05:11:55.198Z,93918.27
2019-01-29T05:14:26.865Z,93921.07
2019-01-29T05:16:58.531Z,93924.39
2019-01-29T05:19:30.266Z,93928.05
2019-01-29T05:22:01.494Z,93921.48
2019-01-29T05:24:33.140Z,93925.45
2019-01-29T05:27:04.927Z,93931.93
2019-01-29T05:29:36.623Z,93941.47
2019-01-29T05:32:08.425Z,93938.05
2019-01-29T05:34:39.863Z,93946.09
2019-01-29T05:37:11.583Z,93952.91
2019-01-29T05:39:43.108Z,93958.64
2019-01-29T05:42:14.763Z,93953.81
2019-01-29T05:44:46.563Z,93944.66
2019-01-29T05:47:17.980Z,93945.55
2019-01-29T05:49:49.689Z,93945.25
2019-01-29T05:52:20.939Z,93937.27
2019-01-29T05:54:52.258Z,93935.71
2019-01-29T05:57:23.764Z,93943.78
2019-01-29T05:59:55.310Z,93946.36
2019-01-29T06:02:26.981Z,93952.06
2019-01-29T06:04:58.697Z,93947.80
2019-01-29T06:07:30.390Z,93956.20
2019-01-29T06:10:01.608Z,93956.03
2019-01-29T06:12:33.259Z,93960.14
2019-01-29T06:15:05.448Z,93956.30
2019-01-29T06:17:37.317Z,93957.77
2019-01-29T06:20:11.901Z,93957.41
2019-01-29T06:22:43.335Z,93964.70
2019-01-29T06:25:15.000Z,93963.26
2019-01-29T06:27:47.169Z,93966.68
2019-01-29T06:30:20.126Z,93965.03
2019-01-29T06:32:51.806Z,93962.81
2019-01-29T06:35:23.273Z,93965.09
2019-01-29T06:37:54.842Z,93977.27
2019-01-29T06:40:28.083Z,93977.98
2019-01-29T06:43:00.585Z,93976.30
2019-01-29T06:45:32.551Z,93981.30
2019-01-29T06:48:04.658Z,93982.38
2019-01-29T06:50:36.262Z,93981.45
2019-01-29T06:53:07.678Z,93982.08
2019-01-29T06:55:39.256Z,93990.16
2019-01-29T06:58:10.777Z,93981.36
2019-01-29T07:00:42.934Z,93971.18
2019-01-29T07:03:14.433Z,93973.44
2019-01-29T07:05:45.894Z,93972.28
2019-01-29T07:08:17.443Z,93984.90
2019-01-29T07:10:49.201Z,93992.23
2019-01-29T07:13:21.270Z,93990.90
2019-01-29T07:16:12.555Z,93987.68
2019-01-29T07:19:05.710Z,93989.03
2019-01-29T07:21:37.340Z,93989.74
2019-01-29T07:24:09.128Z,93988.27
2019-01-29T07:26:40.783Z,93986.46
2019-01-29T07:29:12.093Z,93988.46
2019-01-29T07:31:43.827Z,93985.72
2019-01-29T07:34:15.054Z,93980.98
2019-01-29T07:36:46.517Z,93990.89
2019-01-29T07:39:18.305Z,94004.19
2019-01-29T07:41:49.855Z,94005.43
2019-01-29T07:44:21.458Z,94003.00
2019-01-29T07:46:52.930Z,94002.08
2019-01-29T07:49:24.693Z,94000.56
2019-01-29T07:51:56.529Z,93989.39
2019-01-29T07:54:33.227Z,93995.12
2019-01-29T07:57:01.850Z,94008.27
2019-01-29T07:59:33.515Z,94008.69
2019-01-29T08:02:05.752Z,94017.09
2019-01-29T08:04:37.259Z,94018.94
2019-01-29T08:07:09.021Z,94022.56
2019-01-29T08:09:40.471Z,94016.09
2019-01-29T08:12:12.093Z,94010.37
2019-01-29T08:14:43.637Z,94037.44
2019-01-29T08:17:15.257Z,94022.05
2019-01-29T08:19:46.914Z,94019.65
2019-01-29T08:22:18.405Z,94023.38
2019-01-29T08:24:53.309Z,94025.20
2019-01-29T08:27:23.603Z,94029.22
2019-01-29T08:29:55.203Z,94023.31
2019-01-29T08:32:26.683Z,94035.78
2019-01-29T08:34:58.427Z,94044.82
2019-01-29T08:37:30.252Z,94046.30
2019-01-29T08:40:01.774Z,94043.08
2019-01-29T08:42:33.392Z,94047.02
2019-01-29T08:45:05.945Z,94052.56
2019-01-29T08:47:37.464Z,94052.03
2019-01-29T08:50:11.938Z,94058.34
2019-01-29T08:52:43.457Z,94066.48
2019-01-29T08:55:14.768Z,94067.33
2019-01-29T08:57:46.086Z,94063.61
2019-01-29T09:00:18.211Z,94067.26
2019-01-29T09:02:49.868Z,94076.31
2019-01-29T09:05:21.332Z,94069.91
2019-01-29T09:07:52.814Z,94080.20
2019-01-29T09:10:24.378Z,94074.17
2019-01-29T09:12:55.956Z,94069.97
2019-01-29T09:15:27.714Z,94074.86
2019-01-29T09:17:59.652Z,94083.87
2019-01-29T09:20:31.406Z,94084.56
2019-01-29T09:23:03.339Z,94089.81
2019-01-29T09:25:36.825Z,94090.61
2019-01-29T09:28:08.433Z,94082.85
2019-01-29T09:30:39.875Z,94077.73
2019-01-29T09:33:11.354Z,94085.26
2019-01-29T09:35:42.784Z,94094.77
2019-01-29T09:38:14.113Z,94103.67
2019-01-29T09:40:45.597Z,94091.23
2019-01-29T09:43:17.577Z,94080.21
2019-01-29T09:45:49.173Z,94075.07
2019-01-29T09:48:20.917Z,94078.04
2019-01-29T09:50:52.632Z,94078.70
2019-01-29T09:53:24.047Z,94075.38
2019-01-29T09:55:55.626Z,94079.07
2019-01-29T09:58:27.160Z,94075.19
2019-01-29T10:00:58.697Z,94068.31
2019-01-29T10:03:30.414Z,94067.41
2019-01-29T10:06:01.944Z,94059.12
2019-01-29T10:08:33.472Z,94069.59
2019-01-29T10:11:05.180Z,94059.20
2019-01-29T10:13:36.787Z,94054.34
2019-01-29T10:16:08.594Z,94057.31
2019-01-29T10:18:39.959Z,94053.44
2019-01-29T10:21:11.342Z,94052.94
2019-01-29T10:23:42.844Z,94044.95
2019-01-29T10:26:14.603Z,94047.21
2019-01-29T10:28:45.910Z,94041.55
2019-01-29T10:31:17.241Z,94037.27
2019-01-29T10:33:48.872Z,94041.84
2019-01-29T10:36:20.621Z,94040.14
2019-01-29T10:38:52.098Z,94042.20
2019-01-29T10:41:23.677Z,94034.20
2019-01-29T10:43:56.382Z,94036.06
2019-01-29T10:46:27.943Z,94031.91
2019-01-29T10:48:59.538Z,94023.00
2019-01-29T10:51:31.302Z,94020.70
2019-01-29T10:54:03.044Z,94019.44
2019-01-29T10:56:34.581Z,94034.17
2019-01-29T10:59:06.400Z,94030.05
2019-01-29T11:01:38.124Z,94014.75
2019-01-29T11:04:09.803Z,94010.22
2019-01-29T11:06:41.553Z,94015.63
2019-01-29T11:09:15.100Z,94003.61
2019-01-29T11:11:46.569Z,93998.13
2019-01-29T11:14:17.840Z,94005.27
2019-01-29T11:16:49.167Z,94007.25
2019-01-29T11:19:20.575Z,93999.27
2019-01-29T11:21:52.142Z,94000.00
2019-01-29T11:24:23.632Z,94010.91
2019-01-29T11:26:55.004Z,94001.23
2019-01-29T11:29:26.719Z,93994.09
2019-01-29T11:31:58.556Z,93993.85
2019-01-29T11:34:30.320Z,93994.78
2019-01-29T11:37:01.872Z,93983.60
2019-01-29T11:39:33.840Z,93988.36
2019-01-29T11:42:05.789Z,93985.80
2019-01-29T11:44:37.563Z,93983.56
2019-01-29T11:47:09.275Z,93988.13
2019-01-29T11:49:41.118Z,93983.11
2019-01-29T11:52:12.395Z,93989.13
2019-01-29T11:54:43.892Z,93991.11
2019-01-29T11:57:16.533Z,93994.05
2019-01-29T11:59:48.050Z,93992.30
2019-01-29T12:02:28.027Z,94004.97
2019-01-29T12:04:52.527Z,94002.78
2019-01-29T12:07:24.166Z,94005.81
2019-01-29T12:09:56.596Z,94008.31
2019-01-29T12:12:28.402Z,94007.02
2019-01-29T12:15:00.214Z,94000.55
2019-01-29T12:17:31.692Z,94001.58
2019-01-29T12:20:03.374Z,93998.80
2019-01-29T12:22:34.863Z,93994.03
2019-01-29T12:25:06.726Z,93992.84
2019-01-29T12:27:38.505Z,93995.87
2019-01-29T12:30:14.662Z,93990.77
2019-01-29T12:32:46.362Z,93995.38
2019-01-29T12:35:17.915Z,93993.28
2019-01-29T12:37:49.469Z,93990.77
2019-01-29T12:40:21.080Z,93989.84
2019-01-29T12:42:53.724Z,93993.84
2019-01-29T12:45:25.434Z,93989.56
2019-01-29T12:47:57.200Z,93984.70
2019-01-29T12:50:29.161Z,93979.33
2019-01-29T12:53:11.859Z,93983.24
2019-01-29T12:55:43.433Z,93984.16
2019-01-29T12:58:15.119Z,93980.43
2019-01-29T13:00:49.655Z,93982.66
2019-01-29T13:03:21.374Z,93986.09
2019-01-29T13:05:53.326Z,93988.07
2019-01-29T13:08:24.997Z,93987.39
2019-01-29T13:10:56.560Z,93989.52
2019-01-29T13:13:28.409Z,93991.92
2019-01-29T13:16:00.212Z,93986.45
2019-01-29T13:18:31.883Z,93986.97
2019-01-29T13:21:03.529Z,93983.60
2019-01-29T13:23:34.858Z,93984.91
2019-01-29T13:26:06.435Z,93976.90
2019-01-29T13:28:37.681Z,93984.54
2019-01-29T13:31:09.339Z,93984.70
2019-01-29T13:33:40.938Z,93985.38
2019-01-29T13:36:13.466Z,93986.16
2019-01-29T13:38:45.296Z,93980.17
2019-01-29T13:41:17.185Z,93987.97
2019-01-29T13:43:48.809Z,93988.16
2019-01-29T13:46:20.733Z,93985.38
2019-01-29T13:48:52.468Z,93990.55
2019-01-29T13:51:24.174Z,93994.54
2019-01-29T13:53:55.836Z,93995.70
2019-01-29T13:56:27.578Z,93989.72
2019-01-29T13:58:59.200Z,93992.89
2019-01-29T14:01:32.039Z,93990.72
2019-01-29T14:04:06.263Z,93990.23
2019-01-29T14:06:37.065Z,93996.38
2019-01-29T14:09:09.448Z,93990.59
2019-01-29T14:11:41.241Z,94001.14
2019-01-29T14:14:12.926Z,93996.58
2019-01-29T14:16:44.385Z,94000.14
2019-01-29T14:19:15.915Z,93999.72
2019-01-29T14:21:47.393Z,93995.84
2019-01-29T14:24:19.128Z,93995.35
2019-01-29T14:26:50.700Z,93994.25
2019-01-29T14:29:22.238Z,93988.26
2019-01-29T14:31:53.817Z,93991.89
2019-01-29T14:34:25.376Z,93993.47
2019-01-29T14:36:56.899Z,93994.31
2019-01-29T14:40:16.805Z,93988.94
2019-01-29T14:42:49.838Z,93989.94
2019-01-29T14:45:24.599Z,93988.62
2019-01-29T14:47:57.090Z,93987.33
2019-01-29T14:50:29.773Z,93986.55
2019-01-29T14:53:01.211Z,93976.48
2019-01-29T14:55:32.818Z,93978.55
2019-01-29T14:58:04.355Z,93981.75
2019-01-29T15:00:37.510Z,93981.14
2019-01-29T15:03:11.348Z,93987.77
2019-01-29T15:05:42.594Z,93982.44
2019-01-29T15:08:14.259Z,93979.55
2019-01-29T15:10:45.930Z,93981.20
2019-01-29T15:13:17.373Z,93988.66
2019-01-29T15:15:55.264Z,93977.36
2019-01-29T15:18:32.743Z,93979.59
2019-01-29T15:21:04.627Z,93986.32
2019-01-29T15:23:36.136Z,93985.02
2019-01-29T15:26:07.931Z,93978.68
2019-01-29T15:28:39.624Z,93977.09
2019-01-29T15:31:11.169Z,93980.78
2019-01-29T15:33:42.664Z,93989.20
2019-01-29T15:36:14.300Z,93989.55
2019-01-29T15:38:45.608Z,93991.20
2019-01-29T15:41:17.463Z,93985.50
2019-01-29T15:43:49.385Z,93996.27
2019-01-29T15:46:21.101Z,93993.03
2019-01-29T15:48:53.988Z,93990.45
2019-01-29T15:51:25.534Z,93993.93
2019-01-29T15:53:57.249Z,93989.52
2019-01-29T15:56:28.753Z,93984.88
2019-01-29T15:59:00.476Z,93983.42
2019-01-29T16:01:32.068Z,93988.23
2019-01-29T16:04:03.711Z,93984.80
2019-01-29T16:06:37.313Z,93987.70
2019-01-29T16:09:10.777Z,93986.52
2019-01-29T16:11:42.106Z,93991.49
2019-01-29T16:14:13.886Z,93986.97
2019-01-29T16:16:45.284Z,93983.74
2019-01-29T16:19:16.875Z,93983.86
2019-01-29T16:21:48.332Z,93980.34
2019-01-29T16:24:19.666Z,93987.36
2019-01-29T16:26:51.065Z,93982.31
2019-01-29T16:29:22.546Z,93979.92
2019-01-29T16:31:54.079Z,93983.80
2019-01-29T16:34:25.447Z,93980.56
2019-01-29T16:36:57.308Z,93990.44
2019-01-29T16:39:28.840Z,93982.67
2019-01-29T16:42:00.323Z,93979.52
2019-01-29T16:44:31.711Z,93980.37
2019-01-29T16:47:03.482Z,93976.97
2019-01-29T16:49:34.954Z,93974.11
2019-01-29T16:52:07.005Z,93980.89
2019-01-29T16:54:38.880Z,93983.03
2019-01-29T16:57:10.534Z,93988.07
2019-01-29T16:59:42.196Z,93987.58
2019-01-29T17:02:14.997Z,93977.72
2019-01-29T17:04:46.348Z,93982.52
2019-01-29T17:07:17.683Z,93970.16
2019-01-29T17:09:49.393Z,93964.51
2019-01-29T17:12:20.961Z,93965.44
2019-01-29T17:14:52.449Z,93965.44
2019-01-29T17:17:23.987Z,93963.95
2019-01-29T17:19:56.324Z,93965.97
2019-01-29T17:22:27.892Z,93965.05
2019-01-29T17:24:59.184Z,93966.34
2019-01-29T17:27:39.899Z,93966.34
2019-01-29T17:30:06.996Z,93967.64
2019-01-29T17:32:38.708Z,93968.41
2019-01-29T17:35:10.464Z,93960.70
2019-01-29T17:37:41.921Z,93959.92
2019-01-29T17:40:14.644Z,93964.33
2019-01-29T17:42:46.456Z,93956.58
2019-01-29T17:45:20.902Z,93948.05
2019-01-29T17:47:52.971Z,93945.98
2019-01-29T17:50:26.668Z,93952.41
2019-01-29T17:52:58.720Z,93950.51
2019-01-29T17:55:31.648Z,93957.30
2019-01-29T17:58:03.444Z,93945.66
2019-01-29T18:00:36.355Z,93943.44
2019-01-29T18:03:08.235Z,93937.97
2019-01-29T18:05:40.020Z,93934.70
2019-01-29T18:08:11.487Z,93931.91
2019-01-29T18:10:43.157Z,93931.11
2019-01-29T18:13:14.829Z,93933.86
2019-01-29T18:15:46.490Z,93927.80
2019-01-29T18:18:18.253Z,93933.29
2019-01-29T18:20:49.642Z,93925.38
2019-01-29T18:23:21.423Z,93933.86
2019-01-29T18:25:53.257Z,93932.60
2019-01-29T18:28:24.942Z,93932.40
2019-01-29T18:30:56.482Z,93935.70
2019-01-29T18:33:28.116Z,93935.06
2019-01-29T18:35:59.592Z,93937.20
2019-01-29T18:38:31.097Z,93935.66
2019-01-29T18:41:03.043Z,93928.54
2019-01-29T18:43:34.289Z,93931.70
2019-01-29T18:46:05.905Z,93934.62
2019-01-29T18:48:37.482Z,93939.27
2019-01-29T18:51:09.070Z,93948.86
2019-01-29T18:53:40.745Z,93942.73
2019-01-29T18:56:12.117Z,93938.90
2019-01-29T18:58:44.031Z,93946.96
2019-01-29T19:01:15.844Z,93941.55
2019-01-29T19:03:49.699Z,93938.41
2019-01-29T19:06:20.563Z,93944.38
2019-01-29T19:08:52.186Z,93946.69
2019-01-29T19:11:23.843Z,93940.66
2019-01-29T19:13:55.244Z,93936.74
2019-01-29T19:16:26.661Z,93942.92
2019-01-29T19:18:58.311Z,93941.85
2019-01-29T19:21:30.039Z,93934.27
2019-01-29T19:24:01.619Z,93925.70
2019-01-29T19:26:33.239Z,93932.42
2019-01-29T19:29:06.532Z,93926.28
2019-01-29T19:31:38.102Z,93919.02
2019-01-29T19:34:11.160Z,93910.66
2019-01-29T19:36:42.719Z,93902.30
2019-01-29T19:39:14.546Z,93901.98
2019-01-29T19:41:46.138Z,93902.99
2019-01-29T19:44:17.616Z,93895.47
2019-01-29T19:46:50.036Z,93901.16
2019-01-29T19:49:21.550Z,93901.44
2019-01-29T19:51:53.355Z,93899.23
2019-01-29T19:54:25.048Z,93904.03
2019-01-29T19:56:56.505Z,93893.41
2019-01-29T19:59:28.051Z,93896.88
2019-01-29T20:01:59.825Z,93899.34
2019-01-29T20:04:31.532Z,93897.69
2019-01-29T20:07:03.418Z,93898.57
2019-01-29T20:09:34.965Z,93897.28
2019-01-29T20:12:06.756Z,93897.84
2019-01-29T20:14:38.508Z,93901.36
2019-01-29T20:17:10.108Z,93905.34
2019-01-29T20:19:41.799Z,93892.98
2019-01-29T20:22:13.659Z,93892.09
2019-01-29T20:24:45.249Z,93892.09
2019-01-29T20:27:17.886Z,93883.38
2019-01-29T20:29:49.531Z,93875.39
2019-01-29T20:32:21.397Z,93873.45
2019-01-29T20:34:53.072Z,93875.48
2019-01-29T20:37:24.631Z,93862.39
2019-01-29T20:39:55.951Z,93860.94
2019-01-29T20:42:27.382Z,93862.11
2019-01-29T20:44:58.770Z,93859.52
2019-01-29T20:47:30.147Z,93858.09
2019-01-29T20:50:01.588Z,93856.80
2019-01-29T20:52:33.102Z,93854.31
2019-01-29T20:55:04.535Z,93857.05
2019-01-29T20:57:35.851Z,93860.41
2019-01-29T21:00:17.403Z,93855.88
2019-01-29T21:02:48.983Z,93852.98
2019-01-29T21:05:20.694Z,93852.81
2019-01-29T21:07:52.243Z,93858.75
2019-01-29T21:10:23.847Z,93851.84
2019-01-29T21:12:55.679Z,93847.36
2019-01-29T21:15:37.654Z,93836.92
2019-01-29T21:18:00.303Z,93833.63
2019-01-29T21:20:32.308Z,93831.14
2019-01-29T21:23:03.698Z,93831.24
2019-01-29T21:25:35.491Z,93826.69
2019-01-29T21:28:07.096Z,93825.91
2019-01-29T21:30:43.661Z,93827.85
2019-01-29T21:33:14.096Z,93822.04
2019-01-29T21:35:45.802Z,93833.95
2019-01-29T21:38:17.608Z,93837.95
2019-01-29T21:40:49.257Z,93839.12
2019-01-29T21:43:20.870Z,93834.44
2019-01-29T21:45:53.666Z,93827.98
2019-01-29T21:48:25.084Z,93822.45
2019-01-29T21:50:56.454Z,93816.22
2019-01-29T21:53:27.857Z,93813.80
2019-01-29T21:55:59.294Z,93817.84
2019-01-29T21:58:31.154Z,93825.27
2019-01-29T22:01:02.987Z,93823.33
2019-01-29T22:03:34.776Z,93818.20
2019-01-29T22:06:06.652Z,93813.80
2019-01-29T22:08:38.177Z,93808.30
2019-01-29T22:11:09.923Z,93800.03
2019-01-29T22:14:08.912Z,93796.08
2019-01-29T22:17:04.687Z,93816.33
2019-01-29T22:19:45.245Z,93811.08
2019-01-29T22:22:38.110Z,93809.39
2019-01-29T22:25:14.001Z,93811.61
2019-01-29T22:27:46.558Z,93805.04
2019-01-29T22:30:26.837Z,93804.70
2019-01-29T22:32:58.428Z,93800.59
2019-01-29T22:35:29.918Z,93800.76
2019-01-29T22:38:01.688Z,93796.20
2019-01-29T22:40:33.723Z,93797.19
2019-01-29T22:43:06.114Z,93792.30
2019-01-29T22:45:37.889Z,93785.45
2019-01-29T22:48:09.960Z,93789.48
2019-01-29T22:50:43.194Z,93779.20
2019-01-29T22:53:14.858Z,93770.35
2019-01-29T22:55:46.664Z,93765.30
2019-01-29T22:58:18.179Z,93773.90
2019-01-29T23:01:33.871Z,93774.50
2019-01-29T23:04:44.761Z,93775.32
2019-01-29T23:07:21.911Z,93761.93
2019-01-29T23:09:53.395Z,93761.62
2019-01-29T23:12:24.995Z,93763.39
2019-01-29T23:14:56.580Z,93767.38
2019-01-29T23:17:28.329Z,93759.68
2019-01-29T23:19:59.712Z,93762.72
2019-01-29T23:22:31.136Z,93760.33
2019-01-29T23:25:02.511Z,93759.68
2019-01-29T23:27:34.458Z,93766.02
2019-01-29T23:30:08.224Z,93761.69
2019-01-29T23:32:39.861Z,93751.33
2019-01-29T23:35:11.427Z,93752.02
2019-01-29T23:37:42.913Z,93759.84
2019-01-29T23:40:15.162Z,93751.81
2019-01-29T23:42:46.708Z,93752.34
2019-01-29T23:45:18.571Z,93752.34
2019-01-29T23:48:00.625Z,93746.73
2019-01-29T23:50:32.638Z,93747.84
2019-01-29T23:53:04.191Z,93743.92
2019-01-29T23:55:35.679Z,93746.46
2019-01-29T23:58:07.553Z,93737.36
